< < Back
Terminal Aerodrome Forecast


Current Version              Previous Versions:   1  2  3  4  5  6  7  8  9  

Terminal Aerodrome Forecast

509
FTUS42 KTAE 281120
TAFTLH
TAF
KTLH 281120Z 2812/2912 25003KT P6SM SCT250
     FM282000 24007KT P6SM VCTS BKN050CB
     FM290100 VRB03KT P6SM BKN250=

Latest METAR

065
SAUS80 KWBC 281500
MTRTLH
METAR KTLH 281453Z 25008KT 10SM FEW029 SCT250 32/22 A3001 RMK AO2 SLP159
T03170222 51001 $


USA.gov is the U.S. government's official web portal to all federal, state and local government web resources and services.